createdAt,value
2023-01-06T00:01:35.358Z,101551.88
2023-01-06T00:04:04.516Z,101549.84
2023-01-06T00:06:33.308Z,101556.31
2023-01-06T00:09:04.969Z,101546.28
2023-01-06T00:11:33.957Z,101538.78
2023-01-06T00:14:03.928Z,101532.41
2023-01-06T00:16:32.278Z,101531.16
2023-01-06T00:19:01.680Z,101537.97
2023-01-06T00:21:30.894Z,101535.09
2023-01-06T00:23:59.288Z,101541.09
2023-01-06T00:26:27.583Z,101530.41
2023-01-06T00:28:56.393Z,101524.63
2023-01-06T00:31:26.145Z,101527.59
2023-01-06T00:33:56.451Z,101528.09
2023-01-06T00:36:25.166Z,101525.28
2023-01-06T00:38:53.474Z,101524.78
2023-01-06T00:41:24.482Z,101524.41
2023-01-06T00:43:52.707Z,101520.63
2023-01-06T00:46:21.115Z,101500.88
2023-01-06T00:49:04.212Z,101507.09
2023-01-06T00:51:33.702Z,101495.69
2023-01-06T00:54:02.683Z,101491.84
2023-01-06T00:56:30.914Z,101504.25
2023-01-06T00:58:59.123Z,101495.31
2023-01-06T01:01:27.472Z,101496.00
2023-01-06T01:03:57.226Z,101495.69
2023-01-06T01:06:25.800Z,101491.69
2023-01-06T01:08:58.131Z,101491.63
2023-01-06T01:11:44.955Z,101495.78
2023-01-06T01:14:14.920Z,101489.03
2023-01-06T01:16:43.199Z,101494.50
2023-01-06T01:19:13.576Z,101499.69
2023-01-06T01:21:41.905Z,101491.88
2023-01-06T01:24:10.357Z,101505.16
2023-01-06T01:26:38.732Z,101495.66
2023-01-06T01:29:07.265Z,101501.44
2023-01-06T01:31:35.477Z,101497.13
2023-01-06T01:34:03.956Z,101499.50
2023-01-06T01:36:33.607Z,101505.09
2023-01-06T01:39:01.879Z,101505.09
2023-01-06T01:41:31.523Z,101500.72
2023-01-06T01:44:02.633Z,101501.53
2023-01-06T01:46:35.270Z,101506.31
2023-01-06T01:49:08.134Z,101496.50
2023-01-06T01:51:42.095Z,101497.56
2023-01-06T01:54:14.494Z,101488.88
2023-01-06T01:56:46.722Z,101494.31
2023-01-06T01:59:18.207Z,101484.06
2023-01-06T02:01:46.940Z,101477.00
2023-01-06T02:04:16.918Z,101480.94
2023-01-06T02:06:48.936Z,101484.16
2023-01-06T02:09:24.947Z,101492.72
2023-01-06T02:11:53.611Z,101491.09
2023-01-06T02:14:24.365Z,101494.09
2023-01-06T02:17:08.033Z,101492.50
2023-01-06T02:20:35.971Z,101488.47
2023-01-06T02:23:37.549Z,101491.28
2023-01-06T02:27:04.119Z,101485.03
2023-01-06T02:30:27.177Z,101481.47
2023-01-06T02:33:25.315Z,101470.38
2023-01-06T02:36:29.324Z,101466.25
2023-01-06T02:39:14.117Z,101468.78
2023-01-06T02:41:47.701Z,101454.03
2023-01-06T02:44:27.673Z,101451.34
2023-01-06T02:47:14.435Z,101449.34
2023-01-06T02:49:54.136Z,101446.75
2023-01-06T02:52:32.355Z,101456.41
2023-01-06T02:55:07.985Z,101441.09
2023-01-06T02:57:42.729Z,101434.69
2023-01-06T03:00:18.030Z,101437.00
2023-01-06T03:02:54.702Z,101434.75
2023-01-06T03:05:26.024Z,101438.34
2023-01-06T03:07:56.280Z,101435.94
2023-01-06T03:10:27.431Z,101434.31
2023-01-06T03:13:02.167Z,101429.50
2023-01-06T03:15:30.367Z,101426.88
2023-01-06T03:17:58.874Z,101428.81
2023-01-06T03:20:28.978Z,101429.56
2023-01-06T03:22:57.216Z,101424.34
2023-01-06T03:25:25.791Z,101419.03
2023-01-06T03:27:54.170Z,101421.03
2023-01-06T03:30:22.611Z,101418.50
2023-01-06T03:33:01.042Z,101417.44
2023-01-06T03:35:54.133Z,101398.81
2023-01-06T03:38:37.015Z,101402.19
2023-01-06T03:41:18.243Z,101403.00
2023-01-06T03:43:58.823Z,101394.19
2023-01-06T03:46:34.150Z,101388.94
2023-01-06T03:49:09.126Z,101396.09
2023-01-06T03:51:47.616Z,101387.47
2023-01-06T03:54:30.863Z,101396.69
2023-01-06T03:57:06.151Z,101393.81
2023-01-06T03:59:39.641Z,101390.59
2023-01-06T04:02:08.241Z,101386.97
2023-01-06T04:04:37.541Z,101386.56
2023-01-06T04:07:07.198Z,101385.28
2023-01-06T04:09:35.461Z,101392.78
2023-01-06T04:12:21.311Z,101397.09
2023-01-06T04:14:49.626Z,101387.56
2023-01-06T04:17:17.812Z,101390.31
2023-01-06T04:19:46.016Z,101376.41
2023-01-06T04:22:15.643Z,101368.66
2023-01-06T04:24:43.886Z,101369.81
2023-01-06T04:27:12.116Z,101370.81
2023-01-06T04:29:40.370Z,101372.50
2023-01-06T04:32:08.636Z,101376.31
2023-01-06T04:34:36.878Z,101370.06
2023-01-06T04:37:05.224Z,101367.66
2023-01-06T04:39:34.824Z,101365.69
2023-01-06T04:42:03.051Z,101358.72
2023-01-06T04:44:31.282Z,101349.88
2023-01-06T04:46:59.569Z,101339.78
2023-01-06T04:49:27.855Z,101342.56
2023-01-06T04:51:56.172Z,101334.59
2023-01-06T04:54:24.419Z,101345.50
2023-01-06T04:56:54.144Z,101352.34
2023-01-06T04:59:22.338Z,101350.53
2023-01-06T05:01:50.663Z,101344.56
2023-01-06T05:04:18.973Z,101330.47
2023-01-06T05:06:47.355Z,101344.22
2023-01-06T05:09:15.556Z,101338.34
2023-01-06T05:11:43.778Z,101345.03
2023-01-06T05:14:13.621Z,101337.41
2023-01-06T05:16:41.901Z,101330.34
2023-01-06T05:19:10.155Z,101333.16
2023-01-06T05:21:38.349Z,101328.38
2023-01-06T05:24:07.242Z,101327.28
2023-01-06T05:26:35.470Z,101328.09
2023-01-06T05:29:03.678Z,101337.09
2023-01-06T05:31:33.375Z,101344.53
2023-01-06T05:34:01.621Z,101340.06
2023-01-06T05:36:29.889Z,101343.06
2023-01-06T05:38:58.148Z,101349.13
2023-01-06T05:41:26.361Z,101343.25
2023-01-06T05:43:54.544Z,101338.59
2023-01-06T05:46:22.778Z,101345.00
2023-01-06T05:48:52.362Z,101332.59
2023-01-06T05:51:20.979Z,101338.69
2023-01-06T05:53:49.965Z,101336.06
2023-01-06T05:56:20.975Z,101346.44
2023-01-06T05:58:51.203Z,101336.38
2023-01-06T06:01:22.382Z,101341.66
2023-01-06T06:03:54.908Z,101341.94
2023-01-06T06:06:25.758Z,101340.50
2023-01-06T06:08:53.971Z,101324.88
2023-01-06T06:11:23.250Z,101322.03
2023-01-06T06:13:53.486Z,101325.06
2023-01-06T06:16:25.529Z,101330.31
2023-01-06T06:18:58.405Z,101315.69
2023-01-06T06:21:28.959Z,101320.00
2023-01-06T06:23:59.379Z,101317.22
2023-01-06T06:26:27.992Z,101306.03
2023-01-06T06:28:56.716Z,101314.75
2023-01-06T06:31:27.672Z,101313.22
2023-01-06T06:34:00.879Z,101318.66
2023-01-06T06:36:30.537Z,101313.22
2023-01-06T06:38:59.295Z,101318.50
2023-01-06T06:41:27.816Z,101312.06
2023-01-06T06:43:56.427Z,101314.25
2023-01-06T06:46:24.988Z,101315.88
2023-01-06T06:48:53.490Z,101308.13
2023-01-06T06:51:23.721Z,101326.78
2023-01-06T06:53:52.808Z,101320.06
2023-01-06T06:56:22.225Z,101326.16
2023-01-06T06:58:50.972Z,101322.16
2023-01-06T07:01:21.812Z,101323.06
2023-01-06T07:03:50.577Z,101327.59
2023-01-06T07:06:23.844Z,101332.25
2023-01-06T07:08:52.669Z,101323.75
2023-01-06T07:11:21.555Z,101315.63
2023-01-06T07:13:50.140Z,101308.28
2023-01-06T07:16:19.826Z,101308.00
2023-01-06T07:18:48.762Z,101303.19
2023-01-06T07:21:16.980Z,101313.16
2023-01-06T07:23:46.551Z,101301.41
2023-01-06T07:26:15.787Z,101308.38
2023-01-06T07:28:44.089Z,101305.44
2023-01-06T07:31:12.357Z,101305.69
2023-01-06T07:33:41.211Z,101296.97
2023-01-06T07:36:10.541Z,101306.28
2023-01-06T07:38:38.762Z,101312.28
2023-01-06T07:41:08.358Z,101310.47
2023-01-06T07:43:36.558Z,101312.09
2023-01-06T07:46:05.043Z,101322.91
2023-01-06T07:48:33.256Z,101317.91
2023-01-06T07:51:03.249Z,101318.66
2023-01-06T07:53:32.531Z,101320.09
2023-01-06T07:56:00.771Z,101327.13
2023-01-06T07:58:30.363Z,101327.28
2023-01-06T08:00:58.574Z,101327.53
2023-01-06T08:03:26.820Z,101326.72
2023-01-06T08:05:55.113Z,101338.75
2023-01-06T08:08:23.625Z,101332.47
2023-01-06T08:10:51.925Z,101336.97
2023-01-06T08:13:20.607Z,101331.75
2023-01-06T08:15:52.052Z,101340.66
2023-01-06T08:18:20.521Z,101339.66
2023-01-06T08:20:48.826Z,101339.81
2023-01-06T08:23:17.013Z,101342.91
2023-01-06T08:25:45.261Z,101339.53
2023-01-06T08:28:13.488Z,101346.88
2023-01-06T08:30:44.206Z,101350.13
2023-01-06T08:33:14.875Z,101352.06
2023-01-06T08:35:44.125Z,101350.13
2023-01-06T08:38:12.345Z,101344.88
2023-01-06T08:40:40.648Z,101355.97
2023-01-06T08:43:08.891Z,101366.41
2023-01-06T08:45:40.386Z,101365.88
2023-01-06T08:48:08.875Z,101370.25
2023-01-06T08:50:39.530Z,101378.84
2023-01-06T08:53:08.100Z,101388.41
2023-01-06T08:55:39.553Z,101388.47
2023-01-06T08:58:09.311Z,101397.06
2023-01-06T09:00:38.121Z,101400.22
2023-01-06T09:03:06.386Z,101405.03
2023-01-06T09:05:34.750Z,101403.38
2023-01-06T09:08:05.066Z,101397.41
2023-01-06T09:10:33.427Z,101399.13
2023-01-06T09:13:01.613Z,101407.22
2023-01-06T09:15:29.951Z,101392.38
2023-01-06T09:17:58.131Z,101389.31
2023-01-06T09:20:26.379Z,101394.56
2023-01-06T09:22:54.577Z,101394.78
2023-01-06T09:25:24.134Z,101411.25
2023-01-06T09:27:52.385Z,101411.78
2023-01-06T09:30:20.810Z,101424.72
2023-01-06T09:32:49.125Z,101421.75
2023-01-06T09:35:17.528Z,101428.94
2023-01-06T09:37:45.903Z,101427.50
2023-01-06T09:40:18.474Z,101428.09
2023-01-06T09:43:02.317Z,101429.13
2023-01-06T09:45:39.255Z,101438.84
2023-01-06T09:48:14.558Z,101435.66
2023-01-06T09:50:46.438Z,101440.38
2023-01-06T09:53:20.252Z,101439.75
2023-01-06T09:55:52.495Z,101435.56
2023-01-06T09:58:26.766Z,101447.66
2023-01-06T10:00:57.159Z,101438.69
2023-01-06T10:03:27.552Z,101434.69
2023-01-06T10:06:08.598Z,101442.19
2023-01-06T10:08:44.534Z,101446.78
2023-01-06T10:11:18.639Z,101436.50
2023-01-06T10:14:01.566Z,101440.91
2023-01-06T10:16:44.437Z,101447.00
2023-01-06T10:19:27.781Z,101442.75
2023-01-06T10:22:05.163Z,101440.13
2023-01-06T10:24:49.722Z,101443.81
2023-01-06T10:27:29.165Z,101437.63
2023-01-06T10:30:02.433Z,101454.50
2023-01-06T10:32:35.684Z,101442.66
2023-01-06T10:35:04.443Z,101451.91
2023-01-06T10:37:40.233Z,101441.72
2023-01-06T10:40:22.271Z,101444.88
2023-01-06T10:42:57.421Z,101445.88
2023-01-06T10:45:32.873Z,101442.69
2023-01-06T10:48:02.559Z,101429.47
2023-01-06T10:50:30.927Z,101432.97
2023-01-06T10:52:59.136Z,101435.69
2023-01-06T10:55:43.298Z,101435.94
2023-01-06T10:58:36.694Z,101442.19
2023-01-06T11:01:11.884Z,101438.13
2023-01-06T11:03:43.299Z,101441.22
2023-01-06T11:06:23.365Z,101437.28
2023-01-06T11:08:51.593Z,101440.50
2023-01-06T11:11:29.454Z,101432.03
2023-01-06T11:14:02.574Z,101438.72
2023-01-06T11:16:34.827Z,101438.78
2023-01-06T11:19:06.797Z,101446.09
2023-01-06T11:21:43.552Z,101451.63
2023-01-06T11:24:19.943Z,101442.97
2023-01-06T11:26:54.245Z,101435.75
2023-01-06T11:29:29.817Z,101444.94
2023-01-06T11:32:05.109Z,101431.88
2023-01-06T11:34:34.076Z,101436.94
2023-01-06T11:37:02.463Z,101431.69
2023-01-06T11:39:34.365Z,101429.25
2023-01-06T11:42:13.784Z,101432.00
2023-01-06T11:44:43.669Z,101428.19
2023-01-06T11:47:19.955Z,101432.84
2023-01-06T11:49:51.254Z,101431.06
2023-01-06T11:52:25.681Z,101441.34
2023-01-06T11:55:02.146Z,101439.06
2023-01-06T11:57:45.386Z,101421.31
2023-01-06T12:00:31.236Z,101413.56
2023-01-06T12:03:09.519Z,101425.25
2023-01-06T12:05:56.049Z,101423.47
2023-01-06T12:08:28.064Z,101427.13
2023-01-06T12:11:02.238Z,101424.81
2023-01-06T12:13:43.839Z,101438.66
2023-01-06T12:16:23.570Z,101418.09
2023-01-06T12:18:53.892Z,101424.88
2023-01-06T12:21:30.274Z,101424.72
2023-01-06T12:24:01.702Z,101426.03
2023-01-06T12:26:31.420Z,101424.09
2023-01-06T12:29:01.411Z,101423.56
2023-01-06T12:31:44.756Z,101423.38
2023-01-06T12:34:22.545Z,101426.19
2023-01-06T12:36:57.831Z,101418.25
2023-01-06T12:39:34.462Z,101416.28
2023-01-06T12:42:10.314Z,101410.56
2023-01-06T12:44:50.540Z,101420.03
2023-01-06T12:47:26.278Z,101412.09
2023-01-06T12:50:01.053Z,101414.59
2023-01-06T12:52:34.406Z,101416.41
2023-01-06T12:55:03.823Z,101415.44
2023-01-06T12:57:52.839Z,101407.44
2023-01-06T13:00:42.968Z,101423.09
2023-01-06T13:04:06.884Z,101421.03
2023-01-06T13:06:54.399Z,101421.25
2023-01-06T13:09:39.141Z,101413.34
2023-01-06T13:12:30.295Z,101424.19
2023-01-06T13:15:05.460Z,101422.91
2023-01-06T13:17:45.909Z,101416.31
2023-01-06T13:20:21.631Z,101416.50
2023-01-06T13:23:05.426Z,101410.06
2023-01-06T13:26:03.285Z,101406.63
2023-01-06T13:28:44.085Z,101416.63
2023-01-06T13:31:46.407Z,101414.19
2023-01-06T13:34:59.291Z,101423.13
2023-01-06T13:37:40.049Z,101419.69
2023-01-06T13:40:14.372Z,101422.25
2023-01-06T13:42:50.714Z,101420.13
2023-01-06T13:45:25.596Z,101414.28
2023-01-06T13:47:54.367Z,101410.75
2023-01-06T13:50:25.062Z,101415.69
2023-01-06T13:52:54.919Z,101414.53
2023-01-06T13:55:29.721Z,101421.09
2023-01-06T13:58:18.704Z,101412.63
2023-01-06T14:01:10.199Z,101419.78
2023-01-06T14:03:39.989Z,101422.31
2023-01-06T14:06:12.415Z,101420.81
2023-01-06T14:08:50.260Z,101414.53
2023-01-06T14:11:28.759Z,101424.09
2023-01-06T14:13:59.449Z,101416.72
2023-01-06T14:16:44.420Z,101414.31
2023-01-06T14:19:18.960Z,101411.03
2023-01-06T14:21:48.425Z,101421.47
2023-01-06T14:24:30.607Z,101426.56
2023-01-06T14:27:02.459Z,101423.19
2023-01-06T14:30:20.757Z,101422.19
2023-01-06T14:33:23.284Z,101414.84
2023-01-06T14:36:00.848Z,101415.94
2023-01-06T14:38:33.998Z,101419.47
2023-01-06T14:41:06.126Z,101421.34
2023-01-06T14:43:47.078Z,101415.41
2023-01-06T14:46:20.742Z,101417.94
2023-01-06T14:48:57.501Z,101415.56
2023-01-06T14:51:26.577Z,101422.13
2023-01-06T14:54:05.516Z,101417.25
2023-01-06T14:56:34.576Z,101419.34
2023-01-06T14:59:10.751Z,101421.47
2023-01-06T15:01:42.862Z,101419.97
2023-01-06T15:04:26.356Z,101426.34
2023-01-06T15:07:17.904Z,101433.00
2023-01-06T15:09:47.117Z,101436.31
2023-01-06T15:12:27.720Z,101425.38
2023-01-06T15:14:55.973Z,101425.94
2023-01-06T15:17:24.682Z,101423.44
2023-01-06T15:19:54.781Z,101426.16
2023-01-06T15:22:26.100Z,101409.19
2023-01-06T15:24:55.741Z,101401.41
2023-01-06T15:27:24.034Z,101410.78
2023-01-06T15:29:53.474Z,101410.91
2023-01-06T15:32:24.187Z,101411.53
2023-01-06T15:34:58.076Z,101419.47
2023-01-06T15:37:31.109Z,101417.91
2023-01-06T15:39:59.730Z,101414.47
2023-01-06T15:42:28.546Z,101417.63
2023-01-06T15:44:58.756Z,101414.88
2023-01-06T15:47:35.411Z,101420.19
2023-01-06T15:50:08.915Z,101420.63
2023-01-06T15:52:40.573Z,101423.94
2023-01-06T15:55:24.655Z,101425.41
2023-01-06T15:57:57.697Z,101429.41
2023-01-06T16:00:29.310Z,101425.16
2023-01-06T16:02:59.266Z,101422.56
2023-01-06T16:05:42.861Z,101412.03
2023-01-06T16:08:25.339Z,101408.41
2023-01-06T16:11:39.725Z,101403.41
2023-01-06T16:14:30.606Z,101399.34
2023-01-06T16:17:11.481Z,101399.00
2023-01-06T16:19:47.413Z,101401.22
2023-01-06T16:22:37.352Z,101408.03
2023-01-06T16:25:22.753Z,101412.34
2023-01-06T16:27:53.936Z,101420.75
2023-01-06T16:30:27.248Z,101422.47
2023-01-06T16:32:56.686Z,101419.81
2023-01-06T16:35:27.895Z,101429.97
2023-01-06T16:37:58.009Z,101431.56
2023-01-06T16:40:29.296Z,101430.09
2023-01-06T16:43:00.428Z,101437.44
2023-01-06T16:45:36.198Z,101436.31
2023-01-06T16:48:04.912Z,101435.00
2023-01-06T16:50:39.714Z,101439.81
2023-01-06T16:53:16.206Z,101435.34
2023-01-06T16:55:44.800Z,101438.03
2023-01-06T16:58:19.352Z,101442.72
2023-01-06T17:00:51.711Z,101430.38
2023-01-06T17:03:23.004Z,101424.69
2023-01-06T17:05:51.885Z,101434.22
2023-01-06T17:08:28.603Z,101429.50
2023-01-06T17:10:57.331Z,101438.09
2023-01-06T17:13:37.107Z,101439.38
2023-01-06T17:16:16.649Z,101440.84
2023-01-06T17:18:53.045Z,101441.72
2023-01-06T17:21:24.656Z,101445.25
2023-01-06T17:23:58.654Z,101448.63
2023-01-06T17:26:28.157Z,101452.81
2023-01-06T17:29:00.150Z,101449.25
2023-01-06T17:31:35.206Z,101449.09
2023-01-06T17:34:13.360Z,101445.22
2023-01-06T17:36:45.229Z,101440.75
2023-01-06T17:39:23.677Z,101440.16
2023-01-06T17:42:01.723Z,101440.00
2023-01-06T17:44:38.048Z,101439.41
2023-01-06T17:47:13.454Z,101425.94
2023-01-06T17:49:42.136Z,101431.03
2023-01-06T17:52:18.663Z,101438.28
2023-01-06T17:55:13.200Z,101441.41
2023-01-06T17:57:47.102Z,101445.97
2023-01-06T18:00:24.367Z,101430.56
2023-01-06T18:02:57.168Z,101437.88
2023-01-06T18:06:08.702Z,101438.78
2023-01-06T18:08:39.271Z,101440.56
2023-01-06T18:11:30.343Z,101435.88
2023-01-06T18:14:15.617Z,101429.41
2023-01-06T18:16:47.012Z,101433.50
2023-01-06T18:19:30.755Z,101430.31
2023-01-06T18:21:59.885Z,101440.44
2023-01-06T18:24:35.038Z,101442.03
2023-01-06T18:27:13.017Z,101440.72
2023-01-06T18:29:44.091Z,101441.00
2023-01-06T18:32:34.085Z,101442.09
2023-01-06T18:35:04.710Z,101432.84
2023-01-06T18:37:36.068Z,101431.31
2023-01-06T18:40:07.179Z,101424.19
2023-01-06T18:42:40.321Z,101422.94
2023-01-06T18:45:22.399Z,101428.78
2023-01-06T18:48:00.447Z,101429.41
2023-01-06T18:50:37.008Z,101440.16
2023-01-06T18:53:20.609Z,101435.69
2023-01-06T18:55:51.316Z,101421.50
2023-01-06T18:58:37.101Z,101433.31
2023-01-06T19:01:19.757Z,101435.03
2023-01-06T19:04:03.593Z,101431.72
2023-01-06T19:06:45.562Z,101436.66
2023-01-06T19:09:25.057Z,101428.69
2023-01-06T19:12:06.959Z,101440.72
2023-01-06T19:14:40.308Z,101430.72
2023-01-06T19:17:22.132Z,101428.91
2023-01-06T19:19:51.701Z,101430.63
2023-01-06T19:22:25.128Z,101424.03
2023-01-06T19:25:03.424Z,101426.50
2023-01-06T19:27:56.712Z,101420.38
2023-01-06T19:30:43.857Z,101425.25
2023-01-06T19:33:51.798Z,101422.72
2023-01-06T19:36:40.841Z,101424.09
2023-01-06T19:39:28.339Z,101426.03
2023-01-06T19:42:10.240Z,101418.19
2023-01-06T19:44:39.603Z,101422.84
2023-01-06T19:47:19.480Z,101414.28
2023-01-06T19:49:53.115Z,101419.56
2023-01-06T19:52:36.495Z,101419.03
2023-01-06T19:55:20.429Z,101414.09
2023-01-06T19:57:52.554Z,101411.94
2023-01-06T20:00:46.140Z,101402.72
2023-01-06T20:03:29.205Z,101417.53
2023-01-06T20:05:57.524Z,101414.63
2023-01-06T20:08:25.769Z,101419.78
2023-01-06T20:10:53.980Z,101412.72
2023-01-06T20:13:22.287Z,101410.75
2023-01-06T20:15:50.574Z,101415.72
2023-01-06T20:18:20.162Z,101408.69
2023-01-06T20:20:48.375Z,101411.56
2023-01-06T20:23:18.327Z,101400.66
2023-01-06T20:25:46.855Z,101404.72
2023-01-06T20:28:16.652Z,101406.28
2023-01-06T20:30:46.563Z,101404.16
2023-01-06T20:33:15.036Z,101401.84
2023-01-06T20:35:44.672Z,101399.72
2023-01-06T20:38:12.896Z,101386.19
2023-01-06T20:40:41.163Z,101397.69
2023-01-06T20:43:09.470Z,101395.47
2023-01-06T20:45:37.827Z,101399.97
2023-01-06T20:48:06.713Z,101396.84
2023-01-06T20:50:35.308Z,101399.50
2023-01-06T20:53:04.878Z,101401.25
2023-01-06T20:55:33.128Z,101398.75
2023-01-06T20:58:01.335Z,101407.97
2023-01-06T21:00:29.737Z,101402.41
2023-01-06T21:02:57.992Z,101407.19
2023-01-06T21:05:26.356Z,101404.25
2023-01-06T21:07:54.565Z,101400.88
2023-01-06T21:10:24.236Z,101406.09
2023-01-06T21:12:52.447Z,101401.56
2023-01-06T21:15:20.908Z,101407.41
2023-01-06T21:17:49.193Z,101401.38
2023-01-06T21:20:17.569Z,101411.38
2023-01-06T21:22:45.786Z,101401.09
2023-01-06T21:25:14.020Z,101397.63
2023-01-06T21:27:43.596Z,101394.19
2023-01-06T21:30:13.460Z,101398.22
2023-01-06T21:32:41.682Z,101404.34
2023-01-06T21:35:10.952Z,101402.19
2023-01-06T21:37:39.169Z,101406.25
2023-01-06T21:40:09.207Z,101401.69
2023-01-06T21:42:55.080Z,101402.97
2023-01-06T21:45:24.683Z,101401.50
2023-01-06T21:47:52.949Z,101399.09
2023-01-06T21:50:23.303Z,101406.91
2023-01-06T21:52:52.770Z,101407.50
2023-01-06T21:55:21.361Z,101400.53
2023-01-06T21:57:49.804Z,101400.66
2023-01-06T22:00:18.871Z,101392.03
2023-01-06T22:02:49.128Z,101394.41
2023-01-06T22:05:17.621Z,101397.84
2023-01-06T22:07:50.434Z,101395.09
2023-01-06T22:10:21.589Z,101397.63
2023-01-06T22:12:52.178Z,101397.09
2023-01-06T22:15:21.382Z,101391.44
2023-01-06T22:17:52.052Z,101400.13
2023-01-06T22:20:20.658Z,101400.91
2023-01-06T22:22:49.095Z,101392.81
2023-01-06T22:25:17.515Z,101396.19
2023-01-06T22:27:45.763Z,101396.59
2023-01-06T22:30:14.368Z,101402.91
2023-01-06T22:32:47.473Z,101406.56
2023-01-06T22:35:18.772Z,101406.00
2023-01-06T22:37:47.102Z,101408.31
2023-01-06T22:40:15.947Z,101408.19
2023-01-06T22:42:44.788Z,101405.41
2023-01-06T22:45:13.449Z,101408.00
2023-01-06T22:47:41.747Z,101407.34
2023-01-06T22:50:11.268Z,101406.13
2023-01-06T22:52:40.873Z,101401.19
2023-01-06T22:55:10.551Z,101403.94
2023-01-06T22:57:38.741Z,101400.03
2023-01-06T23:00:12.647Z,101400.34
2023-01-06T23:02:41.193Z,101401.25
2023-01-06T23:05:10.620Z,101405.59
2023-01-06T23:07:42.491Z,101408.66
2023-01-06T23:10:14.051Z,101409.88
2023-01-06T23:12:43.308Z,101399.91
2023-01-06T23:15:12.601Z,101397.81
2023-01-06T23:17:40.897Z,101397.16
2023-01-06T23:20:10.561Z,101391.25
2023-01-06T23:22:40.341Z,101396.03
2023-01-06T23:25:09.527Z,101393.06
2023-01-06T23:27:39.224Z,101395.34
2023-01-06T23:30:09.350Z,101386.88
2023-01-06T23:32:37.687Z,101381.47
2023-01-06T23:35:06.746Z,101378.50
2023-01-06T23:37:35.244Z,101377.13
2023-01-06T23:40:06.108Z,101378.94
2023-01-06T23:42:40.758Z,101380.06
2023-01-06T23:45:16.150Z,101379.97
2023-01-06T23:47:44.417Z,101387.34
2023-01-06T23:50:12.650Z,101385.56
2023-01-06T23:52:40.879Z,101375.88
2023-01-06T23:55:10.980Z,101380.09
2023-01-06T23:57:39.203Z,101375.34
